createdAt,value
2017-07-22T00:00:38.401Z,2.17
2017-07-22T00:03:05.950Z,2.17
2017-07-22T00:05:34.146Z,1.90
2017-07-22T00:08:01.577Z,2.10
2017-07-22T00:10:29.178Z,2.47
2017-07-22T00:12:57.417Z,2.47
2017-07-22T00:15:24.852Z,2.20
2017-07-22T00:17:52.284Z,2.60
2017-07-22T00:20:19.753Z,2.27
2017-07-22T00:22:47.207Z,2.47
2017-07-22T00:25:15.450Z,2.03
2017-07-22T00:27:42.888Z,1.80
2017-07-22T00:30:10.321Z,2.47
2017-07-22T00:32:37.769Z,2.60
2017-07-22T00:35:05.204Z,2.50
2017-07-22T00:37:33.464Z,3.60
2017-07-22T00:40:00.887Z,2.93
2017-07-22T00:42:28.324Z,2.83
2017-07-22T00:44:55.770Z,2.97
2017-07-22T00:47:23.196Z,3.37
2017-07-22T00:49:50.654Z,3.47
2017-07-22T00:52:18.091Z,2.60
2017-07-22T00:54:45.532Z,3.50
2017-07-22T00:57:13.001Z,3.20
2017-07-22T00:59:40.429Z,2.67
2017-07-22T01:02:07.883Z,3.70
2017-07-22T01:04:35.331Z,3.40
2017-07-22T01:07:02.788Z,3.47
2017-07-22T01:09:30.292Z,3.20
2017-07-22T01:11:57.712Z,4.17
2017-07-22T01:14:25.199Z,3.83
2017-07-22T01:16:52.644Z,3.67
2017-07-22T01:19:20.087Z,3.60
2017-07-22T01:21:47.528Z,3.53
2017-07-22T01:24:14.997Z,3.73
2017-07-22T01:26:42.448Z,3.73
2017-07-22T01:29:09.872Z,5.00
2017-07-22T01:31:37.311Z,3.90
2017-07-22T01:34:04.749Z,3.40
2017-07-22T01:36:32.180Z,3.60
2017-07-22T01:38:59.628Z,3.37
2017-07-22T01:41:27.064Z,3.67
2017-07-22T01:43:54.501Z,3.10
2017-07-22T01:46:21.999Z,3.50
2017-07-22T01:48:50.214Z,3.33
2017-07-22T01:51:17.684Z,3.63
2017-07-22T01:53:45.112Z,3.00
2017-07-22T01:56:12.561Z,3.30
2017-07-22T01:58:40.111Z,3.57
2017-07-22T02:01:07.554Z,3.60
2017-07-22T02:03:34.995Z,3.13
2017-07-22T02:06:02.423Z,2.87
2017-07-22T02:08:29.888Z,2.70
2017-07-22T02:10:57.336Z,2.37
2017-07-22T02:13:24.767Z,3.37
2017-07-22T02:15:52.199Z,3.10
2017-07-22T02:18:19.635Z,3.30
2017-07-22T02:20:47.081Z,2.40
2017-07-22T02:23:14.542Z,2.77
2017-07-22T02:25:41.968Z,3.20
2017-07-22T02:28:09.413Z,3.00
2017-07-22T02:30:36.845Z,3.23
2017-07-22T02:33:04.289Z,2.93
2017-07-22T02:35:31.726Z,2.70
2017-07-22T02:37:59.169Z,3.00
2017-07-22T02:40:26.617Z,2.63
2017-07-22T02:42:54.053Z,2.90
2017-07-22T02:45:21.489Z,2.70
2017-07-22T02:47:48.929Z,2.90
2017-07-22T02:50:16.401Z,2.93
2017-07-22T02:52:43.853Z,2.77
2017-07-22T02:55:11.400Z,3.40
2017-07-22T02:57:39.634Z,2.90
2017-07-22T03:00:07.085Z,3.43
2017-07-22T03:02:34.529Z,3.20
2017-07-22T03:05:01.981Z,3.30
2017-07-22T03:07:29.414Z,3.77
2017-07-22T03:09:56.909Z,3.63
2017-07-22T03:12:24.372Z,4.10
2017-07-22T03:14:51.857Z,3.53
2017-07-22T03:17:19.312Z,3.30
2017-07-22T03:19:46.837Z,3.10
2017-07-22T03:22:14.275Z,2.60
2017-07-22T03:24:41.717Z,3.07
2017-07-22T03:27:09.165Z,2.97
2017-07-22T03:29:36.613Z,3.43
2017-07-22T03:32:04.060Z,2.70
2017-07-22T03:34:31.502Z,2.97
2017-07-22T03:36:58.945Z,2.90
2017-07-22T03:39:26.386Z,3.03
2017-07-22T03:41:53.846Z,3.20
2017-07-22T03:44:22.051Z,3.60
2017-07-22T03:46:49.505Z,2.80
2017-07-22T03:49:16.944Z,2.63
2017-07-22T03:51:44.374Z,3.37
2017-07-22T03:54:11.817Z,3.67
2017-07-22T03:56:39.256Z,3.83
2017-07-22T03:59:06.747Z,3.80
2017-07-22T04:01:34.195Z,3.87
2017-07-22T04:04:02.799Z,3.23
2017-07-22T04:06:30.289Z,3.13
2017-07-22T04:08:57.720Z,3.27
2017-07-22T04:11:25.254Z,3.70
2017-07-22T04:13:52.717Z,2.90
2017-07-22T04:16:20.157Z,3.10
2017-07-22T04:18:47.600Z,3.10
2017-07-22T04:21:15.036Z,3.30
2017-07-22T04:23:42.467Z,3.13
2017-07-22T04:26:10.035Z,4.30
2017-07-22T04:28:37.458Z,3.77
2017-07-22T04:31:04.919Z,3.33
2017-07-22T04:33:32.392Z,3.40
2017-07-22T04:36:00.609Z,3.23
2017-07-22T04:38:28.048Z,3.57
2017-07-22T04:40:55.468Z,4.03
2017-07-22T04:43:22.926Z,4.43
2017-07-22T04:45:50.352Z,5.67
2017-07-22T04:48:17.806Z,7.73
2017-07-22T04:50:45.241Z,4.37
2017-07-22T04:53:12.671Z,3.67
2017-07-22T04:55:40.134Z,3.80
2017-07-22T04:58:07.571Z,3.90
2017-07-22T05:00:35.014Z,3.90
2017-07-22T05:03:02.455Z,3.93
2017-07-22T05:05:29.889Z,4.60
2017-07-22T05:07:57.325Z,4.33
2017-07-22T05:10:24.756Z,4.73
2017-07-22T05:12:52.196Z,3.87
2017-07-22T05:15:20.399Z,4.27
2017-07-22T05:17:47.827Z,4.33
2017-07-22T05:20:15.313Z,4.20
2017-07-22T05:22:42.758Z,4.07
2017-07-22T05:25:10.189Z,3.87
2017-07-22T05:27:37.637Z,4.27
2017-07-22T05:30:05.147Z,4.40
2017-07-22T05:32:32.587Z,4.30
2017-07-22T05:35:00.017Z,3.10
2017-07-22T05:37:27.485Z,4.30
2017-07-22T05:39:54.929Z,4.17
2017-07-22T05:42:22.397Z,4.30
2017-07-22T05:44:49.856Z,4.50
2017-07-22T05:47:18.077Z,3.73
2017-07-22T05:49:45.527Z,4.57
2017-07-22T05:52:12.984Z,3.47
2017-07-22T05:54:40.465Z,4.60
2017-07-22T05:57:07.993Z,4.47
2017-07-22T05:59:36.209Z,8.87
2017-07-22T06:02:03.793Z,4.80
2017-07-22T06:04:31.388Z,4.33
2017-07-22T06:06:58.821Z,4.07
2017-07-22T06:09:26.272Z,3.90
2017-07-22T06:11:53.757Z,3.50
2017-07-22T06:14:21.189Z,4.53
2017-07-22T06:16:48.628Z,4.30
2017-07-22T06:19:16.066Z,5.30
2017-07-22T06:21:43.503Z,3.83
2017-07-22T06:24:10.940Z,4.60
2017-07-22T06:26:38.380Z,3.73
2017-07-22T06:29:05.820Z,4.00
2017-07-22T06:31:33.246Z,5.03
2017-07-22T06:34:00.695Z,5.13
2017-07-22T06:36:28.131Z,6.43
2017-07-22T06:38:55.565Z,4.13
2017-07-22T06:41:23.000Z,4.00
2017-07-22T06:43:50.437Z,4.10
2017-07-22T06:46:17.884Z,4.80
2017-07-22T06:48:45.345Z,4.63
2017-07-22T06:51:12.769Z,5.20
2017-07-22T06:53:41.151Z,4.37
2017-07-22T06:56:08.584Z,4.60
2017-07-22T06:58:36.037Z,5.00
2017-07-22T07:01:03.468Z,3.77
2017-07-22T07:03:30.904Z,4.90
2017-07-22T07:05:58.353Z,4.80
2017-07-22T07:08:25.792Z,4.00
2017-07-22T07:10:53.240Z,3.87
2017-07-22T07:13:20.672Z,4.03
2017-07-22T07:15:48.113Z,4.50
2017-07-22T07:18:15.568Z,4.47
2017-07-22T07:20:42.999Z,4.63
2017-07-22T07:23:10.449Z,4.30
2017-07-22T07:25:37.979Z,4.70
2017-07-22T07:28:05.429Z,6.87
2017-07-22T07:30:32.945Z,4.93
2017-07-22T07:33:00.517Z,4.20
2017-07-22T07:35:28.071Z,4.47
2017-07-22T07:37:55.521Z,3.90
2017-07-22T07:40:22.973Z,5.70
2017-07-22T07:42:50.406Z,4.90
2017-07-22T07:45:17.853Z,7.23
2017-07-22T07:47:45.339Z,3.97
2017-07-22T07:50:12.830Z,4.23
2017-07-22T07:52:40.275Z,4.03
2017-07-22T07:55:07.715Z,4.50
2017-07-22T07:57:35.150Z,3.07
2017-07-22T08:00:02.665Z,4.60
2017-07-22T08:02:30.093Z,3.90
2017-07-22T08:04:57.644Z,3.43
2017-07-22T08:07:25.101Z,3.33
2017-07-22T08:09:53.352Z,3.67
2017-07-22T08:12:20.784Z,3.40
2017-07-22T08:14:48.240Z,3.70
2017-07-22T08:17:15.684Z,4.23
2017-07-22T08:19:44.032Z,4.10
2017-07-22T08:22:11.479Z,4.67
2017-07-22T08:24:38.937Z,4.40
2017-07-22T08:27:06.371Z,4.13
2017-07-22T08:29:33.813Z,3.60
2017-07-22T08:32:01.240Z,3.83
2017-07-22T08:34:28.793Z,4.20
2017-07-22T08:36:56.377Z,4.00
2017-07-22T08:39:23.829Z,4.73
2017-07-22T08:41:51.276Z,4.10
2017-07-22T08:44:18.800Z,3.70
2017-07-22T08:46:47.039Z,3.90
2017-07-22T08:49:14.477Z,3.60
2017-07-22T08:51:41.926Z,3.87
2017-07-22T08:54:09.389Z,4.47
2017-07-22T08:56:37.620Z,4.23
2017-07-22T08:59:05.901Z,4.23
2017-07-22T09:01:34.146Z,3.83
2017-07-22T09:04:01.597Z,4.30
2017-07-22T09:06:29.132Z,4.20
2017-07-22T09:08:56.653Z,4.23
2017-07-22T09:11:24.140Z,4.17
2017-07-22T09:13:52.332Z,3.93
2017-07-22T09:16:19.802Z,7.60
2017-07-22T09:18:47.262Z,6.10
2017-07-22T09:21:14.708Z,4.33
2017-07-22T09:23:42.172Z,4.27
2017-07-22T09:26:10.489Z,6.50
2017-07-22T09:28:37.932Z,4.80
2017-07-22T09:31:05.389Z,3.70
2017-07-22T09:33:32.816Z,3.93
2017-07-22T09:36:00.291Z,3.83
2017-07-22T09:38:27.758Z,3.27
2017-07-22T09:40:55.964Z,3.43
2017-07-22T09:43:23.433Z,3.57
2017-07-22T09:45:50.885Z,3.90
2017-07-22T09:48:18.417Z,3.90
2017-07-22T09:50:45.849Z,4.10
2017-07-22T09:53:13.301Z,4.00
2017-07-22T09:55:40.729Z,3.60
2017-07-22T09:58:08.160Z,3.97
2017-07-22T10:00:35.608Z,3.90
2017-07-22T10:03:03.066Z,3.83
2017-07-22T10:05:30.644Z,3.80
2017-07-22T10:07:58.865Z,3.60
2017-07-22T10:10:26.297Z,4.10
2017-07-22T10:12:53.743Z,3.47
2017-07-22T10:15:21.185Z,4.30
2017-07-22T10:17:48.641Z,3.77
2017-07-22T10:20:16.098Z,4.00
2017-07-22T10:22:43.662Z,3.57
2017-07-22T10:25:11.095Z,3.17
2017-07-22T10:27:38.749Z,4.20
2017-07-22T10:30:06.957Z,3.90
2017-07-22T10:32:34.384Z,7.07
2017-07-22T10:35:01.823Z,3.23
2017-07-22T10:37:29.265Z,3.30
2017-07-22T10:39:56.764Z,2.60
2017-07-22T10:42:24.228Z,2.37
2017-07-22T10:44:51.673Z,2.50
2017-07-22T10:47:19.875Z,5.97
2017-07-22T10:49:47.345Z,4.97
2017-07-22T10:52:14.841Z,3.23
2017-07-22T10:54:42.373Z,3.53
2017-07-22T10:57:09.866Z,2.87
2017-07-22T10:59:37.321Z,3.00
2017-07-22T11:02:04.734Z,3.20
2017-07-22T11:04:32.182Z,3.10
2017-07-22T11:06:59.756Z,4.30
2017-07-22T11:09:27.195Z,3.40
2017-07-22T11:11:54.634Z,3.00
2017-07-22T11:14:22.179Z,2.60
2017-07-22T11:16:49.626Z,2.63
2017-07-22T11:19:17.078Z,2.20
2017-07-22T11:21:44.529Z,2.00
2017-07-22T11:24:12.729Z,3.20
2017-07-22T11:26:40.168Z,2.97
2017-07-22T11:29:07.604Z,2.60
2017-07-22T11:31:35.070Z,2.83
2017-07-22T11:34:02.503Z,6.70
2017-07-22T11:36:29.922Z,2.43
2017-07-22T11:38:57.364Z,2.00
2017-07-22T11:41:24.792Z,2.37
2017-07-22T11:43:53.001Z,5.13
2017-07-22T11:46:20.476Z,7.87
2017-07-22T11:48:47.925Z,3.50
2017-07-22T11:51:16.285Z,3.87
2017-07-22T11:53:43.783Z,2.30
2017-07-22T11:56:11.226Z,2.93
2017-07-22T11:58:38.928Z,3.33
2017-07-22T12:01:06.403Z,2.67
2017-07-22T12:03:33.857Z,5.23
2017-07-22T12:06:01.321Z,2.60
2017-07-22T12:08:28.821Z,2.70
2017-07-22T12:10:57.152Z,3.43
2017-07-22T12:13:24.604Z,2.93
2017-07-22T12:15:52.038Z,3.80
2017-07-22T12:18:19.514Z,3.57
2017-07-22T12:20:46.953Z,2.30
2017-07-22T12:23:15.152Z,2.67
2017-07-22T12:25:42.621Z,2.70
2017-07-22T12:28:10.060Z,3.57
2017-07-22T12:30:37.506Z,3.20
2017-07-22T12:33:04.966Z,2.30
2017-07-22T12:35:32.393Z,2.90
2017-07-22T12:37:59.964Z,3.03
2017-07-22T12:40:29.179Z,2.47
2017-07-22T12:42:56.669Z,3.50
2017-07-22T12:45:24.088Z,3.40
2017-07-22T12:47:51.550Z,3.30
2017-07-22T12:50:19.103Z,2.60
2017-07-22T12:52:46.538Z,2.73
2017-07-22T12:55:13.969Z,3.27
2017-07-22T12:57:41.538Z,3.40
2017-07-22T13:00:08.985Z,3.07
2017-07-22T13:02:37.188Z,3.03
2017-07-22T13:05:04.699Z,3.60
2017-07-22T13:07:32.236Z,3.53
2017-07-22T13:10:00.869Z,3.10
2017-07-22T13:12:28.320Z,3.40
2017-07-22T13:14:55.852Z,3.27
2017-07-22T13:17:23.310Z,2.80
2017-07-22T13:19:50.736Z,2.80
2017-07-22T13:22:18.176Z,3.37
2017-07-22T13:24:45.608Z,3.90
2017-07-22T13:27:13.038Z,2.80
2017-07-22T13:29:40.507Z,4.37
2017-07-22T13:32:07.943Z,3.20
2017-07-22T13:34:35.424Z,3.03
2017-07-22T13:37:02.871Z,2.50
2017-07-22T13:39:30.410Z,2.57
2017-07-22T13:41:57.851Z,2.70
2017-07-22T13:44:25.288Z,2.43
2017-07-22T13:46:52.848Z,2.87
2017-07-22T13:49:20.380Z,2.90
2017-07-22T13:51:47.823Z,2.73
2017-07-22T13:54:15.299Z,2.90
2017-07-22T13:56:42.739Z,4.17
2017-07-22T13:59:10.964Z,3.37
2017-07-22T14:01:38.388Z,2.80
2017-07-22T14:04:05.836Z,4.33
2017-07-22T14:06:33.396Z,3.30
2017-07-22T14:09:00.843Z,5.47
2017-07-22T14:11:28.298Z,3.90
2017-07-22T14:13:56.518Z,3.03
2017-07-22T14:16:23.993Z,2.80
2017-07-22T14:18:51.556Z,3.10
2017-07-22T14:21:19.805Z,3.50
2017-07-22T14:23:47.258Z,3.10
2017-07-22T14:26:14.783Z,5.70
2017-07-22T14:28:42.211Z,3.43
2017-07-22T14:31:09.648Z,3.37
2017-07-22T14:33:37.105Z,3.70
2017-07-22T14:36:04.556Z,3.03
2017-07-22T14:38:31.993Z,3.00
2017-07-22T14:40:59.544Z,2.67
2017-07-22T14:43:26.980Z,3.13
2017-07-22T14:45:54.417Z,5.53
2017-07-22T14:48:21.876Z,2.93
2017-07-22T14:50:49.419Z,3.60
2017-07-22T14:53:16.912Z,3.40
2017-07-22T14:55:44.400Z,3.40
2017-07-22T14:58:11.855Z,3.07
2017-07-22T15:00:39.393Z,3.27
2017-07-22T15:03:06.830Z,3.40
2017-07-22T15:05:34.372Z,3.77
2017-07-22T15:08:01.816Z,3.23
2017-07-22T15:10:29.271Z,3.10
2017-07-22T15:12:57.521Z,2.87
2017-07-22T15:15:24.953Z,3.43
2017-07-22T15:17:52.379Z,4.70
2017-07-22T15:20:19.826Z,3.70
2017-07-22T15:22:47.308Z,3.93
2017-07-22T15:25:15.515Z,3.17
2017-07-22T15:27:42.940Z,3.73
2017-07-22T15:30:10.440Z,3.50
2017-07-22T15:32:37.929Z,3.30
2017-07-22T15:35:05.385Z,4.37
2017-07-22T15:37:32.817Z,4.60
2017-07-22T15:40:00.248Z,3.17
2017-07-22T15:42:27.687Z,3.70
2017-07-22T15:44:55.135Z,3.97
2017-07-22T15:47:22.577Z,3.93
2017-07-22T15:49:50.011Z,3.20
2017-07-22T15:52:17.520Z,3.10
2017-07-22T15:54:44.973Z,3.67
2017-07-22T15:57:12.415Z,3.40
2017-07-22T15:59:39.856Z,3.13
2017-07-22T16:02:07.396Z,3.10
2017-07-22T16:04:34.843Z,3.37
2017-07-22T16:07:02.330Z,6.20
2017-07-22T16:09:29.765Z,3.93
2017-07-22T16:11:57.228Z,3.40
2017-07-22T16:14:24.727Z,4.03
2017-07-22T16:16:52.162Z,3.13
2017-07-22T16:19:19.592Z,3.93
2017-07-22T16:21:47.034Z,3.60
2017-07-22T16:24:14.496Z,3.57
2017-07-22T16:26:42.732Z,3.33
2017-07-22T16:29:10.226Z,3.00
2017-07-22T16:31:37.645Z,3.50
2017-07-22T16:34:05.847Z,3.50
2017-07-22T16:36:33.284Z,3.90
2017-07-22T16:39:00.735Z,4.23
2017-07-22T16:41:28.189Z,3.60
2017-07-22T16:43:55.678Z,4.13
2017-07-22T16:46:23.921Z,3.93
2017-07-22T16:48:51.370Z,3.80
2017-07-22T16:51:18.797Z,4.67
2017-07-22T16:53:46.261Z,4.30
2017-07-22T16:56:13.792Z,4.07
2017-07-22T16:58:41.233Z,4.10
2017-07-22T17:01:08.755Z,3.20
2017-07-22T17:03:36.178Z,4.53
2017-07-22T17:06:03.665Z,4.43
2017-07-22T17:08:31.108Z,5.87
2017-07-22T17:10:58.555Z,5.00
2017-07-22T17:13:26.098Z,4.20
2017-07-22T17:15:53.553Z,3.40
2017-07-22T17:18:20.997Z,3.83
2017-07-22T17:20:48.520Z,4.07
2017-07-22T17:23:16.081Z,4.87
2017-07-22T17:25:43.626Z,3.63
2017-07-22T17:28:11.236Z,3.60
2017-07-22T17:30:38.700Z,4.87
2017-07-22T17:33:06.131Z,5.00
2017-07-22T17:35:33.592Z,4.77
2017-07-22T17:38:01.275Z,4.77
2017-07-22T17:40:29.504Z,4.17
2017-07-22T17:42:56.949Z,3.67
2017-07-22T17:45:24.471Z,4.33
2017-07-22T17:47:52.721Z,4.00
2017-07-22T17:50:20.162Z,3.80
2017-07-22T17:52:47.640Z,4.17
2017-07-22T17:55:15.102Z,4.00
2017-07-22T17:57:43.341Z,4.03
2017-07-22T18:00:10.796Z,4.57
2017-07-22T18:02:38.238Z,4.30
2017-07-22T18:05:06.440Z,3.23
2017-07-22T18:07:33.880Z,4.30
2017-07-22T18:10:01.327Z,4.50
2017-07-22T18:12:28.817Z,4.70
2017-07-22T18:14:56.284Z,4.03
2017-07-22T18:17:24.521Z,3.63
2017-07-22T18:19:51.965Z,4.50
2017-07-22T18:22:19.506Z,4.10
2017-07-22T18:24:46.948Z,3.93
2017-07-22T18:27:14.388Z,3.70
2017-07-22T18:29:41.812Z,4.20
2017-07-22T18:32:09.250Z,4.63
2017-07-22T18:34:36.689Z,5.60
2017-07-22T18:37:04.132Z,9.57
2017-07-22T18:39:31.555Z,6.27
2017-07-22T18:41:58.996Z,6.03
2017-07-22T18:44:26.489Z,11.70
2017-07-22T18:46:53.939Z,7.93
2017-07-22T18:49:22.153Z,6.60
2017-07-22T18:51:49.585Z,5.40
2017-07-22T18:54:17.020Z,7.17
2017-07-22T18:56:44.518Z,5.20
2017-07-22T18:59:11.951Z,4.07
2017-07-22T19:01:39.532Z,5.00
2017-07-22T19:04:07.053Z,4.70
2017-07-22T19:06:34.502Z,5.10
2017-07-22T19:09:01.991Z,4.07
2017-07-22T19:11:29.430Z,4.80
2017-07-22T19:13:56.875Z,4.53
2017-07-22T19:16:24.441Z,4.60
2017-07-22T19:18:51.872Z,5.63
2017-07-22T19:21:19.317Z,5.10
2017-07-22T19:23:46.800Z,4.20
2017-07-22T19:26:14.244Z,4.93
2017-07-22T19:28:41.786Z,4.13
2017-07-22T19:31:09.260Z,4.83
2017-07-22T19:33:36.711Z,5.17
2017-07-22T19:36:04.152Z,5.17
2017-07-22T19:38:31.705Z,5.57
2017-07-22T19:40:59.139Z,5.80
2017-07-22T19:43:26.560Z,5.80
2017-07-22T19:45:54.774Z,5.60
2017-07-22T19:48:22.228Z,6.50
2017-07-22T19:50:49.792Z,6.93
2017-07-22T19:53:17.223Z,7.83
2017-07-22T19:55:44.659Z,8.10
2017-07-22T19:58:12.110Z,9.23
2017-07-22T20:00:40.425Z,9.27
2017-07-22T20:03:07.889Z,8.07
2017-07-22T20:05:35.324Z,8.77
2017-07-22T20:08:02.817Z,9.10
2017-07-22T20:10:30.265Z,8.47
2017-07-22T20:12:57.802Z,9.03
2017-07-22T20:15:25.341Z,8.53
2017-07-22T20:17:52.769Z,8.10
2017-07-22T20:20:20.204Z,8.10
2017-07-22T20:22:47.682Z,8.90
2017-07-22T20:25:16.097Z,8.13
2017-07-22T20:27:43.559Z,9.90
2017-07-22T20:30:11.068Z,8.40
2017-07-22T20:32:38.569Z,9.43
2017-07-22T20:35:06.008Z,9.50
2017-07-22T20:37:34.013Z,9.00
2017-07-22T20:40:01.464Z,8.17
2017-07-22T20:42:28.913Z,8.57
2017-07-22T20:44:56.353Z,10.57
2017-07-22T20:47:23.808Z,9.83
2017-07-22T20:49:51.282Z,9.60
2017-07-22T20:52:18.825Z,9.90
2017-07-22T20:54:46.257Z,9.13
2017-07-22T20:57:13.713Z,9.27
2017-07-22T20:59:41.257Z,8.70
2017-07-22T21:02:08.692Z,8.07
2017-07-22T21:04:36.133Z,8.07
2017-07-22T21:07:03.587Z,7.97
2017-07-22T21:09:31.072Z,8.50
2017-07-22T21:11:58.513Z,8.13
2017-07-22T21:14:26.073Z,9.00
2017-07-22T21:16:53.524Z,8.10
2017-07-22T21:19:20.948Z,8.37
2017-07-22T21:21:48.394Z,7.50
2017-07-22T21:24:15.823Z,7.57
2017-07-22T21:26:43.272Z,8.43
2017-07-22T21:29:10.750Z,9.03
2017-07-22T21:31:38.187Z,8.40
2017-07-22T21:34:05.621Z,8.10
2017-07-22T21:36:33.100Z,8.00
2017-07-22T21:39:00.648Z,7.63
2017-07-22T21:41:28.081Z,8.07
2017-07-22T21:43:55.634Z,7.93
2017-07-22T21:46:23.164Z,7.90
2017-07-22T21:48:50.609Z,7.77
2017-07-22T21:51:18.068Z,7.20
2017-07-22T21:53:45.609Z,8.50
2017-07-22T21:56:13.139Z,7.73
2017-07-22T21:58:40.580Z,7.50
2017-07-22T22:01:08.024Z,8.73
2017-07-22T22:03:35.483Z,8.40
2017-07-22T22:06:02.932Z,7.50
2017-07-22T22:08:30.373Z,7.50
2017-07-22T22:10:58.739Z,8.13
2017-07-22T22:13:26.176Z,6.70
2017-07-22T22:15:54.459Z,7.90
2017-07-22T22:18:22.686Z,7.07
2017-07-22T22:20:50.120Z,7.97
2017-07-22T22:23:17.561Z,6.97
2017-07-22T22:25:45.022Z,7.47
2017-07-22T22:28:12.456Z,8.60
2017-07-22T22:30:39.897Z,8.17
2017-07-22T22:33:07.347Z,8.20
2017-07-22T22:35:34.792Z,7.77
2017-07-22T22:38:02.233Z,8.23
2017-07-22T22:40:29.769Z,7.20
2017-07-22T22:42:57.212Z,7.47
2017-07-22T22:45:24.704Z,8.07
2017-07-22T22:47:52.921Z,8.13
2017-07-22T22:50:20.438Z,7.97
2017-07-22T22:52:48.008Z,7.00
2017-07-22T22:55:15.486Z,8.23
2017-07-22T22:57:43.804Z,8.80
2017-07-22T23:00:11.253Z,7.47
2017-07-22T23:02:38.740Z,9.63
2017-07-22T23:05:06.187Z,8.23
2017-07-22T23:07:34.083Z,8.43
2017-07-22T23:10:01.656Z,8.20
2017-07-22T23:12:29.237Z,8.50
2017-07-22T23:14:56.665Z,7.50
2017-07-22T23:17:24.859Z,6.90
2017-07-22T23:19:52.556Z,7.67
2017-07-22T23:22:19.988Z,6.50
2017-07-22T23:24:47.427Z,7.20
2017-07-22T23:27:14.973Z,6.20
2017-07-22T23:29:42.416Z,5.50
2017-07-22T23:32:09.849Z,5.10
2017-07-22T23:34:37.310Z,6.20
2017-07-22T23:37:04.758Z,5.60
2017-07-22T23:39:32.281Z,5.00
2017-07-22T23:41:59.704Z,5.30
2017-07-22T23:44:27.153Z,6.07
2017-07-22T23:46:54.589Z,5.70
2017-07-22T23:49:22.030Z,5.30
2017-07-22T23:51:49.510Z,6.17
2017-07-22T23:54:16.928Z,5.80
2017-07-22T23:56:44.374Z,6.10
2017-07-22T23:59:11.826Z,5.60
